Time;durP1;ratioP1;P1;durP2;ratioP2;P2;SDS_P1;SDS_P2;PMS_P1;PMS_P2;Temp;Humidity;BMP_temperature;BMP_pressure;BME280_temperature;BME280_humidity;BME280_pressure;Samples;Min_cycle;Max_cycle;Signal;HPM_P1;HPM_P2
2021/06/03 00:00:53;;;;;;;5.93;4.85;;;18.40;63.00;;;;;;5033499;28;20188;-89
2021/06/03 00:03:20;;;;;;;5.35;4.22;;;18.40;63.40;;;;;;5033447;28;20173;-89
2021/06/03 00:05:52;;;;;;;5.40;4.60;;;18.40;63.40;;;;;;5033277;28;20196;-89
2021/06/03 00:08:20;;;;;;;5.90;4.78;;;18.30;63.60;;;;;;5015573;28;20172;-89
2021/06/03 00:10:51;;;;;;;7.47;4.10;;;18.30;63.50;;;;;;5032997;28;20169;-90
2021/06/03 00:13:19;;;;;;;7.85;5.20;;;18.30;63.50;;;;;;5033278;28;20255;-89
2021/06/03 00:15:44;;;;;;;5.32;4.82;;;18.30;63.50;;;;;;5033330;28;20287;-89
2021/06/03 00:18:10;;;;;;;5.43;4.50;;;18.30;63.50;;;;;;5033106;28;20211;-90
2021/06/03 00:20:37;;;;;;;5.38;4.43;;;18.30;63.90;;;;;;5033644;28;20314;-89
2021/06/03 00:23:03;;;;;;;4.93;4.43;;;18.20;64.00;;;;;;5032993;28;20575;-89
2021/06/03 00:25:30;;;;;;;6.00;4.65;;;18.20;64.30;;;;;;5032846;28;20204;-89
2021/06/03 00:27:56;;;;;;;5.93;4.80;;;18.20;64.20;;;;;;5033192;28;20169;-89
2021/06/03 00:30:22;;;;;;;6.47;4.75;;;18.20;64.30;;;;;;5032791;28;20208;-89
2021/06/03 00:32:49;;;;;;;7.00;5.30;;;18.10;64.90;;;;;;5032999;28;20172;-89
2021/06/03 00:35:15;;;;;;;7.65;4.85;;;18.00;65.30;;;;;;5033122;28;20197;-89
2021/06/03 00:37:41;;;;;;;10.35;5.35;;;17.90;65.40;;;;;;5032850;28;20180;-89
2021/06/03 00:40:10;;;;;;;5.05;4.53;;;17.90;65.70;;;;;;5032745;28;20683;-89
2021/06/03 00:42:35;;;;;;;8.38;4.80;;;17.80;65.80;;;;;;5032754;28;20200;-89
2021/06/03 00:45:01;;;;;;;9.85;4.50;;;17.80;66.20;;;;;;5032704;28;20294;-89
2021/06/03 00:47:27;;;;;;;6.03;4.38;;;17.70;66.80;;;;;;5032861;28;20180;-89
2021/06/03 00:49:53;;;;;;;5.50;4.90;;;17.70;66.90;;;;;;5032621;28;20184;-89
2021/06/03 00:52:19;;;;;;;6.03;5.28;;;17.60;67.30;;;;;;5034258;28;20175;-89
2021/06/03 00:54:45;;;;;;;7.78;4.65;;;17.40;68.00;;;;;;5036328;28;20537;-89
2021/06/03 00:57:11;;;;;;;5.50;5.00;;;17.20;68.90;;;;;;5036498;28;20176;-89
2021/06/03 00:59:37;;;;;;;7.57;5.53;;;17.20;69.20;;;;;;5036153;28;20196;-89
2021/06/03 01:02:03;;;;;;;10.55;5.32;;;17.00;69.50;;;;;;5036204;28;20173;-89
2021/06/03 01:04:28;;;;;;;7.03;5.55;;;16.90;70.20;;;;;;5036058;28;20196;-89
2021/06/03 01:06:54;;;;;;;6.20;5.55;;;16.80;70.80;;;;;;5018622;28;20173;-89
2021/06/03 01:09:47;;;;;;;9.95;5.50;;;16.70;71.10;;;;;;5018671;28;20227;-89
2021/06/03 01:12:21;;;;;;;6.35;5.40;;;16.60;71.30;;;;;;5035988;28;20161;-89
2021/06/03 01:14:57;;;;;;;6.47;5.65;;;16.60;71.40;;;;;;5018333;28;20173;-88
2021/06/03 01:17:25;;;;;;;9.73;5.60;;;16.50;71.70;;;;;;5018163;28;20234;-89
2021/06/03 01:19:51;;;;;;;6.13;5.53;;;16.50;71.70;;;;;;5062964;22;20328;-84
2021/06/03 01:22:21;;;;;;;9.90;5.82;;;16.50;71.70;;;;;;5096303;28;20170;-84
2021/06/03 01:24:49;;;;;;;7.00;5.97;;;16.50;71.90;;;;;;5096102;28;20259;-83
2021/06/03 01:27:26;;;;;;;6.03;5.43;;;16.40;72.00;;;;;;5096090;28;20167;-83
2021/06/03 01:30:11;;;;;;;7.90;6.03;;;16.30;72.40;;;;;;5096022;28;20677;-83
2021/06/03 01:32:40;;;;;;;8.98;5.70;;;16.30;72.40;;;;;;5077895;28;20630;-83
2021/06/03 01:35:10;;;;;;;6.45;5.60;;;16.30;72.40;;;;;;5077725;28;20269;-84
2021/06/03 01:37:38;;;;;;;7.40;5.78;;;16.30;72.40;;;;;;5095725;28;20202;-83
2021/06/03 01:40:05;;;;;;;5.97;5.05;;;16.30;72.50;;;;;;5095951;28;20328;-84
2021/06/03 01:42:31;;;;;;;10.02;6.05;;;16.30;72.50;;;;;;5077772;28;20186;-84
2021/06/03 01:44:57;;;;;;;8.18;6.20;;;16.30;72.50;;;;;;5077315;28;20613;-83
2021/06/03 01:47:23;;;;;;;7.93;5.57;;;16.30;72.60;;;;;;5077453;28;20177;-83
2021/06/03 01:49:49;;;;;;;7.60;6.00;;;16.30;72.80;;;;;;5095571;28;20186;-83
2021/06/03 01:52:15;;;;;;;6.50;5.90;;;16.20;72.90;;;;;;5095536;28;20174;-84
2021/06/03 01:54:41;;;;;;;9.90;5.50;;;16.20;72.80;;;;;;5095575;28;20591;-83
2021/06/03 01:57:08;;;;;;;6.47;5.65;;;16.20;73.10;;;;;;5095727;28;20198;-83
2021/06/03 01:59:35;;;;;;;8.98;5.50;;;16.20;73.30;;;;;;5077537;28;20594;-83
2021/06/03 02:02:01;;;;;;;8.70;5.75;;;16.10;73.30;;;;;;5077264;28;20232;-83
2021/06/03 02:04:26;;;;;;;9.73;6.23;;;16.10;73.30;;;;;;5095375;28;20198;-83
2021/06/03 02:06:52;;;;;;;8.90;5.20;;;16.20;73.20;;;;;;5077107;28;20167;-83
2021/06/03 02:09:19;;;;;;;8.00;5.37;;;16.10;72.80;;;;;;5095364;28;20210;-84
2021/06/03 02:11:48;;;;;;;9.40;5.80;;;16.20;72.60;;;;;;5077040;28;20704;-83
2021/06/03 02:14:18;;;;;;;10.07;5.77;;;16.20;72.50;;;;;;5095330;28;20166;-84
2021/06/03 02:16:46;;;;;;;6.13;5.45;;;16.20;72.50;;;;;;5076884;28;20178;-83
2021/06/03 02:19:22;;;;;;;7.35;5.20;;;16.20;72.40;;;;;;5094776;28;20170;-83
2021/06/03 02:21:49;;;;;;;9.63;5.20;;;16.20;72.40;;;;;;5095405;28;20677;-83
2021/06/03 02:24:16;;;;;;;10.80;6.07;;;16.20;72.40;;;;;;5094938;28;20190;-83
2021/06/03 02:26:43;;;;;;;13.07;5.85;;;16.20;72.40;;;;;;5095002;28;20223;-84
2021/06/03 02:29:10;;;;;;;6.53;5.53;;;16.20;72.20;;;;;;5095359;28;20238;-83
2021/06/03 02:31:37;;;;;;;6.57;5.88;;;16.20;72.30;;;;;;5095151;28;20806;-84
2021/06/03 02:34:04;;;;;;;8.52;5.63;;;16.10;72.40;;;;;;5095280;28;20187;-84
2021/06/03 02:36:31;;;;;;;8.38;5.50;;;16.10;72.50;;;;;;5082128;28;20174;-84
2021/06/03 02:38:58;;;;;;;7.32;5.97;;;16.10;72.90;;;;;;5077160;28;20182;-84
2021/06/03 02:41:23;;;;;;;6.03;5.45;;;16.00;73.10;;;;;;5076687;28;20257;-84
2021/06/03 02:43:50;;;;;;;6.88;5.40;;;16.00;73.30;;;;;;5076594;28;20191;-83
2021/06/03 02:46:17;;;;;;;5.97;5.40;;;15.90;73.60;;;;;;5076694;28;20648;-83
2021/06/03 02:48:44;;;;;;;7.75;5.55;;;15.80;74.00;;;;;;5076416;28;20560;-83
2021/06/03 02:51:10;;;;;;;6.20;5.57;;;15.70;74.20;;;;;;5076171;28;20195;-83
2021/06/03 02:53:37;;;;;;;8.63;6.25;;;15.70;74.40;;;;;;5094347;28;20190;-83
2021/06/03 02:56:03;;;;;;;10.52;6.10;;;15.60;74.50;;;;;;5094393;28;20170;-83
2021/06/03 02:58:29;;;;;;;12.32;6.28;;;15.60;74.80;;;;;;5094459;28;20181;-83
2021/06/03 03:00:54;;;;;;;9.57;6.27;;;15.50;74.90;;;;;;5076042;28;20198;-83
2021/06/03 03:03:20;;;;;;;8.30;6.33;;;15.50;75.40;;;;;;5075986;28;20634;-83
2021/06/03 03:05:46;;;;;;;7.17;5.73;;;15.40;75.60;;;;;;5094121;28;20195;-83
2021/06/03 03:08:12;;;;;;;8.40;5.47;;;15.40;75.80;;;;;;5094300;28;20171;-83
2021/06/03 03:10:41;;;;;;;9.17;6.07;;;15.30;75.90;;;;;;5093760;28;20716;-83
2021/06/03 03:13:07;;;;;;;6.67;5.83;;;15.30;76.10;;;;;;5094700;28;20261;-83
2021/06/03 03:15:34;;;;;;;5.80;5.20;;;15.40;75.90;;;;;;5075222;28;20175;-83
2021/06/03 03:18:00;;;;;;;6.60;5.87;;;15.60;75.50;;;;;;5094060;28;20178;-83
2021/06/03 03:20:28;;;;;;;6.50;5.37;;;15.70;75.00;;;;;;5094112;28;20206;-83
2021/06/03 03:22:54;;;;;;;6.33;5.27;;;15.70;74.60;;;;;;5093985;28;20162;-83
2021/06/03 03:25:21;;;;;;;7.10;6.30;;;15.70;74.30;;;;;;5075968;28;20240;-84
2021/06/03 03:27:48;;;;;;;10.60;6.20;;;15.70;74.50;;;;;;5093753;28;20258;-83
2021/06/03 03:30:17;;;;;;;8.50;6.70;;;15.70;74.40;;;;;;5093591;28;20273;-83
2021/06/03 03:32:43;;;;;;;9.30;5.30;;;15.70;74.30;;;;;;5093829;28;20182;-83
2021/06/03 03:35:09;;;;;;;13.47;5.83;;;15.80;74.20;;;;;;5075818;28;20650;-83
2021/06/03 03:37:40;;;;;;;6.18;5.63;;;15.90;73.70;;;;;;5094141;28;20280;-83
2021/06/03 03:40:08;;;;;;;8.93;5.13;;;16.00;73.20;;;;;;5075996;28;20247;-83
2021/06/03 03:42:34;;;;;;;6.88;5.30;;;16.20;72.60;;;;;;5093581;28;20556;-83
2021/06/03 03:45:00;;;;;;;9.18;5.22;;;16.40;72.30;;;;;;5093497;28;20197;-83
2021/06/03 03:47:26;;;;;;;7.95;4.90;;;16.50;71.00;;;;;;5093726;28;20608;-84
2021/06/03 03:49:51;;;;;;;5.30;4.80;;;16.70;71.00;;;;;;5094050;28;20689;-84
2021/06/03 03:52:17;;;;;;;8.57;5.28;;;16.70;70.50;;;;;;5094074;28;20178;-84
2021/06/03 03:54:43;;;;;;;8.05;4.90;;;16.80;70.40;;;;;;5093538;28;20197;-83
2021/06/03 03:57:08;;;;;;;5.63;4.63;;;16.90;70.10;;;;;;5093544;28;20198;-83
2021/06/03 03:59:36;;;;;;;6.55;4.97;;;16.90;69.90;;;;;;5093357;28;20658;-83
2021/06/03 04:02:02;;;;;;;6.50;5.15;;;16.90;70.20;;;;;;5093397;28;20707;-83
2021/06/03 04:04:28;;;;;;;5.47;4.93;;;16.90;70.10;;;;;;5075321;28;20198;-83
2021/06/03 04:06:56;;;;;;;6.75;4.57;;;17.00;70.10;;;;;;5093855;28;20169;-83
2021/06/03 04:09:22;;;;;;;5.63;4.65;;;17.00;70.20;;;;;;5075215;28;20190;-83
2021/06/03 04:11:48;;;;;;;6.53;5.07;;;17.00;70.10;;;;;;5093567;28;20166;-84
2021/06/03 04:14:13;;;;;;;5.55;5.03;;;17.10;69.90;;;;;;5075264;28;20216;-84
2021/06/03 04:16:39;;;;;;;9.32;5.40;;;17.20;69.50;;;;;;5075142;28;20206;-83
2021/06/03 04:19:05;;;;;;;5.82;5.22;;;17.20;69.60;;;;;;5093454;28;20179;-83
2021/06/03 04:21:30;;;;;;;8.68;4.55;;;17.20;69.40;;;;;;5093500;28;20159;-84
2021/06/03 04:23:56;;;;;;;6.63;4.93;;;17.20;69.40;;;;;;5093227;28;20190;-84
2021/06/03 04:26:22;;;;;;;7.50;4.75;;;17.30;69.10;;;;;;5075458;28;20175;-83
2021/06/03 04:28:48;;;;;;;7.18;4.72;;;17.30;69.10;;;;;;5097290;28;20642;-83
2021/06/03 04:31:14;;;;;;;7.22;4.43;;;17.30;69.30;;;;;;5097154;28;20182;-83
2021/06/03 04:33:40;;;;;;;6.90;5.28;;;17.30;69.20;;;;;;5097323;28;20170;-83
2021/06/03 04:36:07;;;;;;;6.63;4.55;;;17.30;69.30;;;;;;5097090;28;20189;-83
2021/06/03 04:38:34;;;;;;;9.25;5.28;;;17.30;69.60;;;;;;5096813;28;20278;-84
2021/06/03 04:41:00;;;;;;;5.68;4.50;;;17.30;70.10;;;;;;5078649;28;20198;-84
2021/06/03 04:43:27;;;;;;;11.52;5.70;;;17.30;70.00;;;;;;5097529;28;20182;-83
2021/06/03 04:45:52;;;;;;;6.85;4.82;;;17.30;70.20;;;;;;5097538;28;20548;-83
2021/06/03 04:48:18;;;;;;;5.55;4.97;;;17.30;69.90;;;;;;5097114;28;20167;-83
2021/06/03 04:50:45;;;;;;;5.88;4.55;;;17.30;70.30;;;;;;5096894;28;20203;-83
2021/06/03 04:53:11;;;;;;;5.10;4.60;;;17.20;70.20;;;;;;5097134;28;20163;-83
2021/06/03 04:55:37;;;;;;;6.80;5.13;;;17.20;70.40;;;;;;5097120;28;20664;-83
2021/06/03 04:58:04;;;;;;;7.05;5.03;;;17.20;70.40;;;;;;5096765;28;20174;-83
2021/06/03 05:00:33;;;;;;;9.35;5.47;;;17.10;70.60;;;;;;5096949;28;20324;-83
2021/06/03 05:03:00;;;;;;;9.40;5.30;;;17.10;70.80;;;;;;5097404;28;20178;-83
2021/06/03 05:05:26;;;;;;;8.38;5.68;;;17.00;71.40;;;;;;5096385;28;20187;-83
2021/06/03 05:07:53;;;;;;;8.95;5.45;;;16.90;71.90;;;;;;5096496;28;20248;-83
2021/06/03 05:10:21;;;;;;;7.57;5.25;;;16.90;72.60;;;;;;5096497;28;20190;-83
2021/06/03 05:12:47;;;;;;;5.85;5.25;;;16.80;73.00;;;;;;5078082;28;20171;-83
2021/06/03 05:15:14;;;;;;;7.65;5.20;;;16.80;72.50;;;;;;5078203;28;20171;-83
2021/06/03 05:17:40;;;;;;;5.90;5.30;;;16.90;72.40;;;;;;5098388;28;20178;-83
2021/06/03 05:20:09;;;;;;;7.90;5.30;;;16.90;72.50;;;;;;5096245;28;20206;-83
2021/06/03 05:22:36;;;;;;;8.15;5.85;;;17.00;71.70;;;;;;5095936;28;20179;-83
2021/06/03 05:25:05;;;;;;;9.73;5.55;;;17.00;71.60;;;;;;5077968;28;20195;-83
2021/06/03 05:27:31;;;;;;;8.35;5.40;;;17.00;72.40;;;;;;5096514;28;20173;-83
2021/06/03 05:29:57;;;;;;;8.57;5.30;;;17.10;72.40;;;;;;5077717;28;20286;-83
2021/06/03 05:32:23;;;;;;;9.02;5.57;;;17.10;72.10;;;;;;5096054;28;20242;-84
2021/06/03 05:34:49;;;;;;;12.13;6.28;;;17.20;71.80;;;;;;5078117;28;20269;-83
2021/06/03 05:37:15;;;;;;;9.70;5.25;;;17.30;71.80;;;;;;5095919;28;20170;-83
2021/06/03 05:39:41;;;;;;;5.88;5.22;;;17.50;70.80;;;;;;5096295;28;20567;-83
2021/06/03 05:42:07;;;;;;;8.57;5.53;;;17.50;70.00;;;;;;5096047;28;20175;-83
2021/06/03 05:44:33;;;;;;;6.50;5.45;;;17.50;70.80;;;;;;5096384;28;20186;-84
2021/06/03 05:46:59;;;;;;;9.45;4.93;;;17.50;70.70;;;;;;5095884;28;20170;-83
2021/06/03 05:49:26;;;;;;;7.70;5.70;;;17.50;70.80;;;;;;5077656;28;20596;-83
2021/06/03 05:51:53;;;;;;;7.85;5.32;;;17.60;69.80;;;;;;5077654;28;20198;-83
2021/06/03 05:54:18;;;;;;;7.88;4.60;;;17.70;70.10;;;;;;5095903;28;20171;-83
2021/06/03 05:56:44;;;;;;;7.82;5.28;;;17.70;70.10;;;;;;5077554;28;20269;-84
2021/06/03 05:59:10;;;;;;;7.22;5.55;;;17.70;70.10;;;;;;5095553;28;20171;-84
2021/06/03 06:01:36;;;;;;;9.38;6.25;;;17.70;70.30;;;;;;5095567;28;20178;-84
2021/06/03 06:06:31;;;;;;;8.82;5.70;;;17.70;71.70;;;;;;5095785;28;20699;-84
2021/06/03 06:09:04;;;;;;;6.88;5.18;;;17.70;70.70;;;;;;5077155;28;20202;-84
2021/06/03 06:11:33;;;;;;;6.03;4.95;;;17.80;71.10;;;;;;5095707;28;20291;-83
2021/06/03 06:13:59;;;;;;;7.18;5.10;;;17.80;71.10;;;;;;5077208;28;20185;-84
2021/06/03 06:16:25;;;;;;;10.02;5.47;;;17.90;71.60;;;;;;5095283;28;20175;-84
2021/06/03 06:18:50;;;;;;;7.57;5.60;;;18.00;72.00;;;;;;5095452;28;20179;-84
2021/06/03 06:21:18;;;;;;;12.18;5.32;;;18.20;71.70;;;;;;5095329;28;20581;-84
2021/06/03 06:23:46;;;;;;;7.20;5.63;;;18.20;72.20;;;;;;5076824;28;20175;-83
2021/06/03 06:26:12;;;;;;;9.25;6.03;;;18.30;71.10;;;;;;5095270;28;20195;-84
2021/06/03 06:28:38;;;;;;;8.05;5.43;;;18.30;71.50;;;;;;5095118;28;20170;-84
2021/06/03 06:31:05;;;;;;;8.65;5.30;;;18.30;70.00;;;;;;5077959;28;20194;-84
2021/06/03 06:33:32;;;;;;;7.85;5.50;;;18.40;68.80;;;;;;5095984;28;20166;-84
2021/06/03 06:35:58;;;;;;;8.40;5.43;;;18.40;68.90;;;;;;5078222;28;20244;-83
2021/06/03 06:38:24;;;;;;;6.00;5.30;;;18.50;67.70;;;;;;5096143;28;20646;-83
2021/06/03 06:40:51;;;;;;;8.55;5.10;;;18.60;68.30;;;;;;5095236;28;20233;-84
2021/06/03 06:43:17;;;;;;;7.05;4.88;;;18.70;67.70;;;;;;5094810;28;20175;-83
2021/06/03 06:45:44;;;;;;;6.38;5.03;;;18.70;67.10;;;;;;5097798;28;20206;-83
2021/06/03 06:48:11;;;;;;;9.10;5.22;;;18.80;66.60;;;;;;5077068;28;20172;-83
2021/06/03 06:50:38;;;;;;;9.63;5.53;;;18.70;65.80;;;;;;5094528;28;20194;-84
2021/06/03 06:53:05;;;;;;;9.32;5.28;;;18.80;67.00;;;;;;5095022;28;20198;-83
2021/06/03 06:55:30;;;;;;;9.32;5.40;;;18.90;67.10;;;;;;5095565;28;20600;-84
2021/06/03 06:57:58;;;;;;;6.75;4.90;;;19.10;68.60;;;;;;5076907;28;20202;-84
2021/06/03 07:00:26;;;;;;;9.95;4.85;;;19.20;66.20;;;;;;5095216;28;20183;-83
2021/06/03 07:02:52;;;;;;;7.03;5.10;;;19.30;66.20;;;;;;5077391;28;20638;-84
2021/06/03 07:05:18;;;;;;;7.10;5.15;;;19.40;66.70;;;;;;5095016;28;20220;-84
2021/06/03 07:07:44;;;;;;;7.68;5.35;;;19.50;65.70;;;;;;5077720;28;20171;-84
2021/06/03 07:10:11;;;;;;;7.00;4.85;;;19.60;65.90;;;;;;5096180;28;20243;-84
2021/06/03 07:12:38;;;;;;;6.72;5.20;;;19.70;65.70;;;;;;5077019;28;20190;-84
2021/06/03 07:15:06;;;;;;;8.73;5.00;;;19.70;64.70;;;;;;5095055;28;20171;-83
2021/06/03 07:17:32;;;;;;;5.50;5.00;;;19.80;64.90;;;;;;5077017;28;20661;-84
2021/06/03 07:19:58;;;;;;;6.60;4.60;;;19.90;65.80;;;;;;5076551;28;20214;-83
2021/06/03 07:22:23;;;;;;;11.40;5.38;;;20.00;66.40;;;;;;5077304;28;20327;-84
2021/06/03 07:24:49;;;;;;;14.80;4.95;;;20.00;67.20;;;;;;5095337;28;20194;-83
2021/06/03 07:27:16;;;;;;;9.63;5.35;;;20.00;66.40;;;;;;5077479;28;20529;-84
2021/06/03 07:29:42;;;;;;;7.90;5.30;;;20.00;66.90;;;;;;5077192;28;20194;-83
2021/06/03 07:32:08;;;;;;;8.85;5.00;;;20.10;66.50;;;;;;5095218;28;20181;-84
2021/06/03 07:34:34;;;;;;;6.45;5.47;;;20.20;65.70;;;;;;5095231;28;20194;-83
2021/06/03 07:37:00;;;;;;;7.15;5.35;;;20.30;66.20;;;;;;5095155;28;20171;-84
2021/06/03 07:39:25;;;;;;;5.97;5.40;;;20.40;65.20;;;;;;5095459;28;20218;-83
2021/06/03 07:41:52;;;;;;;12.32;5.18;;;20.50;64.60;;;;;;5095617;28;20250;-83
2021/06/03 07:44:18;;;;;;;33.47;7.45;;;20.60;64.80;;;;;;5094619;28;20638;-83
2021/06/03 07:46:44;;;;;;;12.25;5.30;;;20.80;63.00;;;;;;5103052;22;20230;-90
2021/06/03 07:49:13;;;;;;;7.95;5.15;;;20.90;62.20;;;;;;5073194;28;20167;-89
2021/06/03 07:51:42;;;;;;;8.75;5.00;;;20.90;63.60;;;;;;5055271;28;20649;-89
2021/06/03 07:54:08;;;;;;;6.68;5.03;;;21.10;61.00;;;;;;5055247;28;20179;-89
2021/06/03 07:56:35;;;;;;;9.50;5.10;;;21.20;62.30;;;;;;5073235;28;20218;-89
2021/06/03 07:59:00;;;;;;;10.27;4.68;;;21.30;62.50;;;;;;5073105;28;20172;-89
2021/06/03 08:01:26;;;;;;;13.13;5.13;;;21.30;61.00;;;;;;5075113;28;20208;-89
2021/06/03 08:03:52;;;;;;;7.32;5.22;;;21.40;61.10;;;;;;5075969;28;20266;-90
2021/06/03 08:06:18;;;;;;;12.43;5.10;;;21.70;62.30;;;;;;5059153;28;20211;-88
2021/06/03 08:08:43;;;;;;;12.30;4.63;;;21.70;61.30;;;;;;5059211;28;20225;-89
2021/06/03 08:11:09;;;;;;;14.85;4.82;;;21.90;61.20;;;;;;5077280;28;20535;-89
2021/06/03 08:13:35;;;;;;;7.82;4.95;;;21.90;60.20;;;;;;5077088;28;20175;-89
2021/06/03 08:16:02;;;;;;;6.25;4.50;;;22.10;61.20;;;;;;5076902;28;20187;-89
2021/06/03 08:18:27;;;;;;;5.95;4.25;;;22.20;61.80;;;;;;5076951;28;20642;-89
2021/06/03 08:20:59;;;;;;;10.25;5.32;;;22.30;60.00;;;;;;5076964;28;20180;-89
2021/06/03 08:23:26;;;;;;;11.10;4.05;;;22.30;57.80;;;;;;5077456;28;20156;-89
2021/06/03 08:25:52;;;;;;;8.90;4.55;;;22.40;58.80;;;;;;5076651;28;20588;-89
2021/06/03 08:28:18;;;;;;;6.03;4.25;;;22.30;59.20;;;;;;5076700;28;20197;-89
2021/06/03 08:30:47;;;;;;;7.05;4.20;;;22.50;60.00;;;;;;5076765;28;20178;-88
2021/06/03 08:33:14;;;;;;;6.35;4.50;;;22.60;57.50;;;;;;5076649;28;20240;-89
2021/06/03 08:35:40;;;;;;;5.18;4.53;;;22.70;55.90;;;;;;5058680;28;20214;-89
2021/06/03 08:38:09;;;;;;;7.22;4.65;;;22.80;59.20;;;;;;5059511;28;20181;-89
2021/06/03 08:40:40;;;;;;;15.48;4.50;;;22.70;59.40;;;;;;5076582;28;20666;-89
2021/06/03 08:43:07;;;;;;;5.45;4.03;;;22.80;58.00;;;;;;5076570;28;20160;-89
2021/06/03 08:45:36;;;;;;;7.95;4.20;;;22.70;58.70;;;;;;5058331;28;20336;-89
2021/06/03 08:48:02;;;;;;;7.97;4.57;;;22.70;58.10;;;;;;5058553;28;20590;-89
2021/06/03 08:50:31;;;;;;;7.28;4.63;;;22.90;56.70;;;;;;5076650;28;20651;-89
2021/06/03 08:52:58;;;;;;;7.60;4.43;;;22.70;57.80;;;;;;5058731;28;20262;-88
2021/06/03 08:58:11;;;;;;;7.70;4.90;;;22.40;58.70;;;;;;5076275;28;20217;-88
2021/06/03 09:00:39;;;;;;;10.95;7.20;;;22.30;59.60;;;;;;5058361;28;20186;-88
2021/06/03 09:03:05;;;;;;;8.57;6.13;;;22.20;59.30;;;;;;5058226;28;20175;-89
2021/06/03 09:05:31;;;;;;;12.80;4.82;;;22.10;58.90;;;;;;5076284;28;20289;-89
2021/06/03 09:07:57;;;;;;;15.10;5.43;;;22.10;59.70;;;;;;5058203;28;20262;-89
2021/06/03 09:10:34;;;;;;;9.68;4.63;;;22.20;60.00;;;;;;5076071;28;20199;-89
2021/06/03 09:13:16;;;;;;;6.82;5.18;;;22.00;60.40;;;;;;5075331;28;20171;-89
2021/06/03 09:15:48;;;;;;;9.57;4.78;;;22.10;60.50;;;;;;5057899;28;20620;-89
2021/06/03 09:18:14;;;;;;;7.43;4.95;;;22.10;59.30;;;;;;5075895;28;20568;-89
2021/06/03 09:20:44;;;;;;;5.80;4.72;;;22.20;59.80;;;;;;5058084;28;20201;-88
2021/06/03 09:23:26;;;;;;;8.98;5.22;;;22.00;59.70;;;;;;5057856;28;20192;-88
2021/06/03 09:25:51;;;;;;;11.35;4.95;;;21.80;60.50;;;;;;5075533;28;20196;-88
2021/06/03 09:28:32;;;;;;;8.30;4.90;;;21.80;61.00;;;;;;5057726;28;20178;-88
2021/06/03 09:31:17;;;;;;;7.72;5.30;;;21.70;60.50;;;;;;5057827;28;20174;-88
2021/06/03 09:33:50;;;;;;;9.50;4.72;;;21.80;62.00;;;;;;5057623;28;20673;-89
2021/06/03 09:36:21;;;;;;;6.70;4.57;;;21.70;63.40;;;;;;5074762;28;20191;-88
2021/06/03 09:39:06;;;;;;;9.57;5.13;;;21.70;63.00;;;;;;5074292;28;20262;-88
2021/06/03 09:41:34;;;;;;;7.95;4.95;;;21.70;62.80;;;;;;5057486;28;20714;-88
2021/06/03 09:44:25;;;;;;;7.05;5.07;;;21.60;63.00;;;;;;5057470;28;20631;-89
2021/06/03 09:46:55;;;;;;;13.07;5.55;;;21.50;63.10;;;;;;5075332;28;20203;-89
2021/06/03 09:49:30;;;;;;;12.68;5.38;;;21.30;64.10;;;;;;5075264;28;20217;-88
2021/06/03 09:52:06;;;;;;;13.65;5.38;;;21.30;64.10;;;;;;5057384;28;20535;-88
2021/06/03 09:54:32;;;;;;;6.15;5.30;;;21.20;64.90;;;;;;5057307;28;20178;-88
2021/06/03 09:57:01;;;;;;;11.48;5.55;;;21.10;65.10;;;;;;5075081;28;20191;-88
2021/06/03 09:59:30;;;;;;;6.82;5.18;;;21.10;65.50;;;;;;5057521;28;20171;-88
2021/06/03 10:02:03;;;;;;;6.78;5.20;;;21.00;65.20;;;;;;5075114;28;20163;-88
2021/06/03 10:04:33;;;;;;;9.55;6.07;;;20.90;65.70;;;;;;5057280;28;20719;-88
2021/06/03 10:07:03;;;;;;;13.80;6.78;;;20.60;67.30;;;;;;5073574;28;20252;-88
2021/06/03 10:09:39;;;;;;;10.43;6.03;;;20.40;68.70;;;;;;5073696;28;20167;-88
2021/06/03 10:12:07;;;;;;;11.10;6.25;;;20.40;69.20;;;;;;5073546;28;20721;-87
2021/06/03 10:14:33;;;;;;;9.73;6.00;;;20.40;69.80;;;;;;5057077;28;20183;-87
2021/06/03 10:17:13;;;;;;;16.67;6.70;;;20.40;70.00;;;;;;5056684;28;20206;-87
2021/06/03 10:19:39;;;;;;;9.23;6.50;;;20.30;70.80;;;;;;5074765;28;20242;-87
2021/06/03 10:22:21;;;;;;;17.55;6.25;;;20.30;71.30;;;;;;5074862;28;20252;-88
2021/06/03 10:24:51;;;;;;;7.90;6.03;;;20.30;71.10;;;;;;5055546;28;20187;-87
2021/06/03 10:27:19;;;;;;;12.50;6.70;;;20.10;71.50;;;;;;5073146;28;20192;-88
2021/06/03 10:29:48;;;;;;;9.35;7.03;;;20.00;72.10;;;;;;5075029;28;20247;-88
2021/06/03 10:32:21;;;;;;;9.88;7.43;;;19.90;74.40;;;;;;5056450;28;20225;-87
2021/06/03 10:34:48;;;;;;;10.95;6.53;;;19.80;75.60;;;;;;5074369;28;20163;-88
2021/06/03 10:37:15;;;;;;;10.70;6.78;;;19.80;75.80;;;;;;5056464;28;20639;-88
2021/06/03 10:39:43;;;;;;;8.27;6.63;;;19.70;75.30;;;;;;5056383;28;20717;-88
2021/06/03 10:42:12;;;;;;;9.10;6.43;;;19.50;75.70;;;;;;5074213;28;20236;-88
2021/06/03 10:44:39;;;;;;;8.68;6.25;;;19.50;76.50;;;;;;5074353;28;20207;-87
2021/06/03 10:47:06;;;;;;;11.05;6.78;;;19.60;76.00;;;;;;5073988;28;20202;-88
2021/06/03 10:49:33;;;;;;;10.07;6.50;;;19.60;75.90;;;;;;5057011;28;20179;-87
2021/06/03 10:52:07;;;;;;;12.25;7.82;;;19.70;75.10;;;;;;5073268;28;20902;-88
2021/06/03 10:54:44;;;;;;;14.87;7.77;;;19.60;77.30;;;;;;5055113;28;20440;-88
2021/06/03 10:57:13;;;;;;;8.43;7.45;;;19.70;76.90;;;;;;5055917;28;20198;-86
2021/06/03 10:59:40;;;;;;;12.00;7.88;;;19.50;77.80;;;;;;5055932;28;20179;-87
2021/06/03 11:02:07;;;;;;;11.27;7.65;;;19.30;78.50;;;;;;5055965;28;20225;-87
2021/06/03 11:04:35;;;;;;;11.65;8.30;;;19.30;80.30;;;;;;5055799;28;20202;-87
2021/06/03 11:07:01;;;;;;;16.63;7.18;;;19.20;80.50;;;;;;5055848;28;20287;-87
2021/06/03 11:09:28;;;;;;;16.75;8.48;;;19.20;78.00;;;;;;5055877;28;20175;-87
2021/06/03 11:12:10;;;;;;;13.88;7.38;;;19.10;79.10;;;;;;5073536;28;20172;-87
2021/06/03 11:15:13;;;;;;;12.68;8.02;;;19.20;80.10;;;;;;5055709;28;20183;-87
2021/06/03 11:17:57;;;;;;;17.02;8.05;;;19.20;81.20;;;;;;5055617;28;20724;-87
2021/06/03 11:20:38;;;;;;;14.82;8.38;;;19.10;81.80;;;;;;5055574;28;20179;-87
2021/06/03 11:23:41;;;;;;;14.45;7.30;;;19.10;81.70;;;;;;5055907;28;20181;-87
2021/06/03 11:26:07;;;;;;;8.75;7.10;;;19.20;80.70;;;;;;5042872;28;20246;-87
2021/06/03 11:28:33;;;;;;;8.48;6.95;;;19.20;80.90;;;;;;5073376;28;20198;-87
2021/06/03 11:31:26;;;;;;;11.60;7.00;;;19.20;81.00;;;;;;5073341;28;20207;-87
2021/06/03 11:34:05;;;;;;;15.48;6.75;;;19.30;80.60;;;;;;5055478;28;20199;-88
2021/06/03 11:36:31;;;;;;;13.32;6.57;;;19.30;80.00;;;;;;5054948;28;20226;-87
2021/06/03 11:38:57;;;;;;;8.70;6.57;;;19.20;78.20;;;;;;5055370;28;20662;-87
2021/06/03 11:41:38;;;;;;;11.82;6.68;;;19.20;79.00;;;;;;5055466;28;20179;-86
2021/06/03 11:44:14;;;;;;;12.43;7.28;;;19.20;79.00;;;;;;5055592;28;20182;-89
2021/06/03 11:46:49;;;;;;;11.95;7.18;;;19.20;80.20;;;;;;5050409;28;20702;-89
2021/06/03 11:49:33;;;;;;;11.95;7.60;;;19.10;81.50;;;;;;5073248;28;20173;-87
2021/06/03 11:52:09;;;;;;;12.73;7.43;;;19.10;82.30;;;;;;5072062;28;20175;-87
2021/06/03 11:55:01;;;;;;;11.52;8.02;;;19.00;83.20;;;;;;5072029;28;20203;-88
2021/06/03 11:57:38;;;;;;;11.68;8.85;;;18.90;83.90;;;;;;5073195;28;20214;-87
2021/06/03 12:00:12;;;;;;;12.10;9.32;;;18.90;85.10;;;;;;5055230;28;20661;-87
2021/06/03 12:02:44;;;;;;;11.48;10.02;;;18.90;85.50;;;;;;5055548;28;20179;-88
2021/06/03 12:05:12;;;;;;;10.90;9.75;;;18.80;86.30;;;;;;5055784;28;20195;-87
2021/06/03 12:07:50;;;;;;;10.32;9.32;;;18.70;86.80;;;;;;5071805;28;20254;-87
2021/06/03 12:10:18;;;;;;;11.65;10.43;;;18.70;87.30;;;;;;5055075;28;20171;-87
2021/06/03 12:12:44;;;;;;;12.15;10.10;;;18.60;88.10;;;;;;5073058;28;20259;-87
2021/06/03 12:15:18;;;;;;;14.63;10.45;;;18.50;88.40;;;;;;5055012;28;20171;-87
2021/06/03 12:17:44;;;;;;;10.68;9.40;;;18.50;87.50;;;;;;5072975;28;20171;-87
2021/06/03 12:20:12;;;;;;;10.15;9.07;;;18.50;87.40;;;;;;5054983;28;20175;-87
2021/06/03 12:22:38;;;;;;;11.70;9.40;;;18.50;86.90;;;;;;5055015;28;20715;-88
2021/06/03 12:25:05;;;;;;;11.63;9.40;;;18.40;87.30;;;;;;5054855;28;20298;-87
2021/06/03 12:27:33;;;;;;;14.02;9.30;;;18.40;87.60;;;;;;5072821;28;20520;-87
2021/06/03 12:30:21;;;;;;;17.52;10.20;;;18.40;87.20;;;;;;5055735;28;20184;-87
2021/06/03 12:33:01;;;;;;;12.88;10.40;;;18.40;87.50;;;;;;5054956;28;20172;-87
2021/06/03 12:35:46;;;;;;;11.93;10.73;;;18.30;88.00;;;;;;5054873;28;20621;-87
2021/06/03 12:38:25;;;;;;;14.68;11.90;;;18.30;88.20;;;;;;5054896;28;20175;-88
2021/06/03 12:41:19;;;;;;;12.80;11.20;;;18.40;88.40;;;;;;5083647;28;20148;-92
2021/06/03 12:44:18;;;;;;;;;;;;;;;;;;;;;
2021/06/03 12:46:53;;;;;;;14.20;12.70;;;18.70;87.30;;;;;;5094033;28;20235;-92
2021/06/03 12:49:26;;;;;;;12.85;11.45;;;18.60;87.40;;;;;;5080109;28;20162;-93
2021/06/03 12:52:28;;;;;;;14.38;11.85;;;18.60;87.60;;;;;;5083610;28;20160;-96
2021/06/03 13:06:08;;;;;;;17.70;13.27;;;18.50;87.90;;;;;;5204163;22;20235;-93
2021/06/03 13:09:09;;;;;;;15.80;11.75;;;18.50;88.10;;;;;;5069902;28;20187;-92
2021/06/03 13:11:51;;;;;;;18.92;12.73;;;18.30;88.00;;;;;;4997045;28;20154;-93